sensor_id;sensor_type;location;lat;lon;timestamp;P1;durP1;ratioP1;P2;durP2;ratioP2
5805;SDS011;2929;50.810;8.342;2023-11-21T00:00:00;18.07;;;10.07;;
5805;SDS011;2929;50.810;8.342;2023-11-21T00:02:28;24.23;;;11.40;;
5805;SDS011;2929;50.810;8.342;2023-11-21T00:04:55;16.57;;;9.40;;
5805;SDS011;2929;50.810;8.342;2023-11-21T00:07:24;14.57;;;8.70;;
5805;SDS011;2929;50.810;8.342;2023-11-21T00:09:52;18.87;;;9.67;;
5805;SDS011;2929;50.810;8.342;2023-11-21T00:12:21;16.23;;;9.20;;
5805;SDS011;2929;50.810;8.342;2023-11-21T00:14:48;18.10;;;10.20;;
5805;SDS011;2929;50.810;8.342;2023-11-21T00:17:14;19.83;;;8.50;;
5805;SDS011;2929;50.810;8.342;2023-11-21T00:19:41;15.50;;;8.03;;
5805;SDS011;2929;50.810;8.342;2023-11-21T00:22:09;28.47;;;9.00;;
5805;SDS011;2929;50.810;8.342;2023-11-21T00:24:37;20.30;;;10.40;;
5805;SDS011;2929;50.810;8.342;2023-11-21T00:27:04;16.37;;;9.97;;
5805;SDS011;2929;50.810;8.342;2023-11-21T00:29:31;15.90;;;9.23;;
5805;SDS011;2929;50.810;8.342;2023-11-21T00:31:58;16.10;;;9.43;;
5805;SDS011;2929;50.810;8.342;2023-11-21T00:34:25;19.93;;;8.53;;
5805;SDS011;2929;50.810;8.342;2023-11-21T00:36:52;16.93;;;9.87;;
5805;SDS011;2929;50.810;8.342;2023-11-21T00:39:19;18.93;;;9.70;;
5805;SDS011;2929;50.810;8.342;2023-11-21T00:41:48;21.70;;;10.00;;
5805;SDS011;2929;50.810;8.342;2023-11-21T00:44:15;18.93;;;8.80;;
5805;SDS011;2929;50.810;8.342;2023-11-21T00:46:42;14.70;;;8.10;;
5805;SDS011;2929;50.810;8.342;2023-11-21T00:49:10;14.80;;;7.73;;
5805;SDS011;2929;50.810;8.342;2023-11-21T00:51:37;17.23;;;8.23;;
5805;SDS011;2929;50.810;8.342;2023-11-21T00:54:04;13.50;;;7.93;;
5805;SDS011;2929;50.810;8.342;2023-11-21T00:56:32;20.10;;;9.00;;
5805;SDS011;2929;50.810;8.342;2023-11-21T00:59:00;16.00;;;8.43;;
5805;SDS011;2929;50.810;8.342;2023-11-21T01:01:30;12.83;;;7.63;;
5805;SDS011;2929;50.810;8.342;2023-11-21T01:03:57;14.07;;;7.60;;
5805;SDS011;2929;50.810;8.342;2023-11-21T01:06:24;13.23;;;7.40;;
5805;SDS011;2929;50.810;8.342;2023-11-21T01:08:51;16.80;;;7.43;;
5805;SDS011;2929;50.810;8.342;2023-11-21T01:11:18;11.70;;;7.53;;
5805;SDS011;2929;50.810;8.342;2023-11-21T01:13:45;12.50;;;7.50;;
5805;SDS011;2929;50.810;8.342;2023-11-21T01:16:13;14.87;;;7.83;;
5805;SDS011;2929;50.810;8.342;2023-11-21T01:18:40;11.70;;;6.67;;
5805;SDS011;2929;50.810;8.342;2023-11-21T01:21:07;10.13;;;6.90;;
5805;SDS011;2929;50.810;8.342;2023-11-21T01:23:34;16.13;;;7.10;;
5805;SDS011;2929;50.810;8.342;2023-11-21T01:26:01;12.03;;;7.90;;
5805;SDS011;2929;50.810;8.342;2023-11-21T01:28:28;17.50;;;7.77;;
5805;SDS011;2929;50.810;8.342;2023-11-21T01:30:56;15.70;;;7.90;;
5805;SDS011;2929;50.810;8.342;2023-11-21T01:33:25;22.93;;;8.17;;
5805;SDS011;2929;50.810;8.342;2023-11-21T01:35:53;15.93;;;7.60;;
5805;SDS011;2929;50.810;8.342;2023-11-21T01:38:20;13.80;;;7.90;;
5805;SDS011;2929;50.810;8.342;2023-11-21T01:40:48;16.37;;;7.73;;
5805;SDS011;2929;50.810;8.342;2023-11-21T01:43:15;11.93;;;7.30;;
5805;SDS011;2929;50.810;8.342;2023-11-21T01:45:43;15.03;;;7.80;;
5805;SDS011;2929;50.810;8.342;2023-11-21T01:48:11;18.17;;;8.20;;
5805;SDS011;2929;50.810;8.342;2023-11-21T01:50:40;18.87;;;7.97;;
5805;SDS011;2929;50.810;8.342;2023-11-21T01:53:10;17.23;;;8.67;;
5805;SDS011;2929;50.810;8.342;2023-11-21T01:55:38;19.50;;;8.13;;
5805;SDS011;2929;50.810;8.342;2023-11-21T01:58:07;23.97;;;9.23;;
5805;SDS011;2929;50.810;8.342;2023-11-21T02:00:37;23.80;;;8.50;;
5805;SDS011;2929;50.810;8.342;2023-11-21T02:03:04;17.40;;;8.97;;
5805;SDS011;2929;50.810;8.342;2023-11-21T02:05:32;20.50;;;8.73;;
5805;SDS011;2929;50.810;8.342;2023-11-21T02:08:00;27.30;;;9.43;;
5805;SDS011;2929;50.810;8.342;2023-11-21T02:10:28;26.80;;;9.00;;
5805;SDS011;2929;50.810;8.342;2023-11-21T02:12:57;34.37;;;10.83;;
5805;SDS011;2929;50.810;8.342;2023-11-21T02:15:26;21.57;;;8.23;;
5805;SDS011;2929;50.810;8.342;2023-11-21T02:17:54;23.30;;;9.83;;
5805;SDS011;2929;50.810;8.342;2023-11-21T02:20:23;25.50;;;9.70;;
5805;SDS011;2929;50.810;8.342;2023-11-21T02:22:53;29.17;;;10.00;;
5805;SDS011;2929;50.810;8.342;2023-11-21T02:25:23;18.43;;;9.37;;
5805;SDS011;2929;50.810;8.342;2023-11-21T02:27:50;23.93;;;10.13;;
5805;SDS011;2929;50.810;8.342;2023-11-21T02:30:17;19.60;;;8.90;;
5805;SDS011;2929;50.810;8.342;2023-11-21T02:32:45;21.67;;;8.97;;
5805;SDS011;2929;50.810;8.342;2023-11-21T02:35:12;21.70;;;9.10;;
5805;SDS011;2929;50.810;8.342;2023-11-21T02:37:39;28.23;;;9.17;;
5805;SDS011;2929;50.810;8.342;2023-11-21T02:40:09;22.17;;;9.07;;
5805;SDS011;2929;50.810;8.342;2023-11-21T02:42:37;30.80;;;10.97;;
5805;SDS011;2929;50.810;8.342;2023-11-21T02:45:06;30.27;;;11.67;;
5805;SDS011;2929;50.810;8.342;2023-11-21T02:47:34;25.80;;;9.97;;
5805;SDS011;2929;50.810;8.342;2023-11-21T02:50:01;25.07;;;9.47;;
5805;SDS011;2929;50.810;8.342;2023-11-21T02:52:28;24.07;;;9.50;;
5805;SDS011;2929;50.810;8.342;2023-11-21T02:54:58;26.97;;;8.80;;
5805;SDS011;2929;50.810;8.342;2023-11-21T02:57:26;22.90;;;8.43;;
5805;SDS011;2929;50.810;8.342;2023-11-21T02:59:53;21.93;;;8.70;;
5805;SDS011;2929;50.810;8.342;2023-11-21T03:02:20;20.30;;;8.80;;
5805;SDS011;2929;50.810;8.342;2023-11-21T03:04:48;21.33;;;8.80;;
5805;SDS011;2929;50.810;8.342;2023-11-21T03:07:15;17.20;;;8.57;;
5805;SDS011;2929;50.810;8.342;2023-11-21T03:09:45;20.47;;;9.30;;
5805;SDS011;2929;50.810;8.342;2023-11-21T03:12:12;18.73;;;9.30;;
5805;SDS011;2929;50.810;8.342;2023-11-21T03:14:42;19.67;;;9.17;;
5805;SDS011;2929;50.810;8.342;2023-11-21T03:17:09;18.97;;;7.70;;
5805;SDS011;2929;50.810;8.342;2023-11-21T03:19:36;23.83;;;9.07;;
5805;SDS011;2929;50.810;8.342;2023-11-21T03:22:03;25.60;;;9.03;;
5805;SDS011;2929;50.810;8.342;2023-11-21T03:24:30;25.50;;;9.50;;
5805;SDS011;2929;50.810;8.342;2023-11-21T03:26:58;25.13;;;10.03;;
5805;SDS011;2929;50.810;8.342;2023-11-21T03:29:25;20.37;;;9.10;;
5805;SDS011;2929;50.810;8.342;2023-11-21T03:31:54;24.73;;;8.60;;
5805;SDS011;2929;50.810;8.342;2023-11-21T03:34:23;20.13;;;8.23;;
5805;SDS011;2929;50.810;8.342;2023-11-21T03:36:51;28.57;;;8.73;;
5805;SDS011;2929;50.810;8.342;2023-11-21T03:39:19;21.63;;;9.00;;
5805;SDS011;2929;50.810;8.342;2023-11-21T03:41:47;23.13;;;7.83;;
5805;SDS011;2929;50.810;8.342;2023-11-21T03:44:15;22.20;;;9.40;;
5805;SDS011;2929;50.810;8.342;2023-11-21T03:46:44;27.70;;;9.33;;
5805;SDS011;2929;50.810;8.342;2023-11-21T03:49:12;26.73;;;9.13;;
5805;SDS011;2929;50.810;8.342;2023-11-21T03:51:40;23.60;;;9.40;;
5805;SDS011;2929;50.810;8.342;2023-11-21T03:54:07;35.40;;;10.30;;
5805;SDS011;2929;50.810;8.342;2023-11-21T03:56:38;24.17;;;8.80;;
5805;SDS011;2929;50.810;8.342;2023-11-21T03:59:05;22.40;;;8.77;;
5805;SDS011;2929;50.810;8.342;2023-11-21T04:01:32;26.03;;;9.97;;
5805;SDS011;2929;50.810;8.342;2023-11-21T04:03:59;18.67;;;9.33;;
5805;SDS011;2929;50.810;8.342;2023-11-21T04:06:28;20.93;;;9.53;;
5805;SDS011;2929;50.810;8.342;2023-11-21T04:08:55;15.47;;;8.23;;
5805;SDS011;2929;50.810;8.342;2023-11-21T04:11:22;22.20;;;9.10;;
5805;SDS011;2929;50.810;8.342;2023-11-21T04:13:48;19.87;;;8.00;;
5805;SDS011;2929;50.810;8.342;2023-11-21T04:16:15;16.60;;;7.60;;
5805;SDS011;2929;50.810;8.342;2023-11-21T04:18:43;26.10;;;9.90;;
5805;SDS011;2929;50.810;8.342;2023-11-21T04:21:10;29.60;;;10.43;;
5805;SDS011;2929;50.810;8.342;2023-11-21T04:23:38;26.90;;;9.90;;
5805;SDS011;2929;50.810;8.342;2023-11-21T04:26:06;25.57;;;9.83;;
5805;SDS011;2929;50.810;8.342;2023-11-21T04:28:33;18.83;;;9.03;;
5805;SDS011;2929;50.810;8.342;2023-11-21T04:31:00;20.13;;;9.17;;
5805;SDS011;2929;50.810;8.342;2023-11-21T04:33:27;24.13;;;10.00;;
5805;SDS011;2929;50.810;8.342;2023-11-21T04:35:55;26.73;;;9.43;;
5805;SDS011;2929;50.810;8.342;2023-11-21T04:38:22;22.23;;;8.57;;
5805;SDS011;2929;50.810;8.342;2023-11-21T04:40:50;19.73;;;9.03;;
5805;SDS011;2929;50.810;8.342;2023-11-21T04:43:17;19.37;;;8.33;;
5805;SDS011;2929;50.810;8.342;2023-11-21T04:45:44;21.87;;;9.00;;
5805;SDS011;2929;50.810;8.342;2023-11-21T04:48:11;23.00;;;8.97;;
5805;SDS011;2929;50.810;8.342;2023-11-21T04:50:39;19.17;;;8.00;;
5805;SDS011;2929;50.810;8.342;2023-11-21T04:53:06;20.20;;;8.73;;
5805;SDS011;2929;50.810;8.342;2023-11-21T04:55:33;16.50;;;7.50;;
5805;SDS011;2929;50.810;8.342;2023-11-21T04:58:01;20.40;;;7.90;;
5805;SDS011;2929;50.810;8.342;2023-11-21T05:00:29;19.43;;;9.07;;
5805;SDS011;2929;50.810;8.342;2023-11-21T05:02:56;18.83;;;8.53;;
5805;SDS011;2929;50.810;8.342;2023-11-21T05:05:23;15.40;;;9.20;;
5805;SDS011;2929;50.810;8.342;2023-11-21T05:07:50;19.63;;;8.33;;
5805;SDS011;2929;50.810;8.342;2023-11-21T05:10:18;21.53;;;8.63;;
5805;SDS011;2929;50.810;8.342;2023-11-21T05:12:45;15.50;;;8.20;;
5805;SDS011;2929;50.810;8.342;2023-11-21T05:15:15;14.77;;;8.10;;
5805;SDS011;2929;50.810;8.342;2023-11-21T05:17:42;12.53;;;7.33;;
5805;SDS011;2929;50.810;8.342;2023-11-21T05:20:11;10.80;;;6.00;;
5805;SDS011;2929;50.810;8.342;2023-11-21T05:22:43;19.47;;;7.50;;
5805;SDS011;2929;50.810;8.342;2023-11-21T05:25:09;13.70;;;6.77;;
5805;SDS011;2929;50.810;8.342;2023-11-21T05:27:37;14.90;;;6.13;;
5805;SDS011;2929;50.810;8.342;2023-11-21T05:30:04;16.10;;;6.57;;
5805;SDS011;2929;50.810;8.342;2023-11-21T05:32:35;16.00;;;7.00;;
5805;SDS011;2929;50.810;8.342;2023-11-21T05:35:03;16.80;;;7.07;;
5805;SDS011;2929;50.810;8.342;2023-11-21T05:37:34;16.20;;;7.37;;
5805;SDS011;2929;50.810;8.342;2023-11-21T05:40:04;11.63;;;6.20;;
5805;SDS011;2929;50.810;8.342;2023-11-21T05:42:32;13.23;;;6.93;;
5805;SDS011;2929;50.810;8.342;2023-11-21T05:44:59;10.03;;;5.70;;
5805;SDS011;2929;50.810;8.342;2023-11-21T05:47:37;12.53;;;6.13;;
5805;SDS011;2929;50.810;8.342;2023-11-21T05:50:06;13.33;;;6.30;;
5805;SDS011;2929;50.810;8.342;2023-11-21T05:52:35;13.13;;;6.13;;
5805;SDS011;2929;50.810;8.342;2023-11-21T05:55:03;11.03;;;6.00;;
5805;SDS011;2929;50.810;8.342;2023-11-21T05:57:32;15.73;;;7.37;;
5805;SDS011;2929;50.810;8.342;2023-11-21T06:00:02;17.90;;;7.50;;
5805;SDS011;2929;50.810;8.342;2023-11-21T06:02:47;9.23;;;5.87;;
5805;SDS011;2929;50.810;8.342;2023-11-21T06:05:16;14.70;;;7.10;;
5805;SDS011;2929;50.810;8.342;2023-11-21T06:07:44;12.50;;;7.20;;
5805;SDS011;2929;50.810;8.342;2023-11-21T06:10:11;21.40;;;6.90;;
5805;SDS011;2929;50.810;8.342;2023-11-21T06:12:39;15.63;;;6.47;;
5805;SDS011;2929;50.810;8.342;2023-11-21T06:15:08;12.90;;;6.40;;
5805;SDS011;2929;50.810;8.342;2023-11-21T06:17:38;11.27;;;6.20;;
5805;SDS011;2929;50.810;8.342;2023-11-21T06:20:08;18.07;;;6.60;;
5805;SDS011;2929;50.810;8.342;2023-11-21T06:22:39;14.70;;;7.30;;
5805;SDS011;2929;50.810;8.342;2023-11-21T06:25:07;18.80;;;8.50;;
5805;SDS011;2929;50.810;8.342;2023-11-21T06:27:36;15.90;;;8.23;;
5805;SDS011;2929;50.810;8.342;2023-11-21T06:30:05;16.83;;;9.00;;
5805;SDS011;2929;50.810;8.342;2023-11-21T06:32:34;13.13;;;8.03;;
5805;SDS011;2929;50.810;8.342;2023-11-21T06:35:02;14.07;;;7.60;;
5805;SDS011;2929;50.810;8.342;2023-11-21T06:37:31;11.90;;;7.30;;
5805;SDS011;2929;50.810;8.342;2023-11-21T06:39:58;14.97;;;8.70;;
5805;SDS011;2929;50.810;8.342;2023-11-21T06:42:29;13.63;;;8.20;;
5805;SDS011;2929;50.810;8.342;2023-11-21T06:44:56;14.30;;;8.63;;
5805;SDS011;2929;50.810;8.342;2023-11-21T06:47:24;18.53;;;9.00;;
5805;SDS011;2929;50.810;8.342;2023-11-21T06:49:51;14.33;;;7.13;;
5805;SDS011;2929;50.810;8.342;2023-11-21T06:52:19;12.60;;;7.40;;
5805;SDS011;2929;50.810;8.342;2023-11-21T06:54:48;16.30;;;7.97;;
5805;SDS011;2929;50.810;8.342;2023-11-21T06:57:15;10.43;;;7.10;;
5805;SDS011;2929;50.810;8.342;2023-11-21T06:59:42;19.30;;;7.80;;
5805;SDS011;2929;50.810;8.342;2023-11-21T07:02:10;19.33;;;6.50;;
5805;SDS011;2929;50.810;8.342;2023-11-21T07:04:37;10.70;;;6.43;;
5805;SDS011;2929;50.810;8.342;2023-11-21T07:07:04;10.60;;;6.60;;
5805;SDS011;2929;50.810;8.342;2023-11-21T07:09:33;18.70;;;9.40;;
5805;SDS011;2929;50.810;8.342;2023-11-21T07:12:01;18.93;;;9.73;;
5805;SDS011;2929;50.810;8.342;2023-11-21T07:14:31;23.30;;;9.40;;
5805;SDS011;2929;50.810;8.342;2023-11-21T07:16:58;11.83;;;7.20;;
5805;SDS011;2929;50.810;8.342;2023-11-21T07:19:25;14.43;;;7.20;;
5805;SDS011;2929;50.810;8.342;2023-11-21T07:21:52;9.73;;;6.00;;
5805;SDS011;2929;50.810;8.342;2023-11-21T07:24:19;13.23;;;6.80;;
5805;SDS011;2929;50.810;8.342;2023-11-21T07:26:46;10.50;;;6.00;;
5805;SDS011;2929;50.810;8.342;2023-11-21T07:29:14;12.87;;;7.50;;
5805;SDS011;2929;50.810;8.342;2023-11-21T07:31:41;17.90;;;8.13;;
5805;SDS011;2929;50.810;8.342;2023-11-21T07:34:08;18.60;;;7.80;;
5805;SDS011;2929;50.810;8.342;2023-11-21T07:39:12;11.33;;;7.13;;
5805;SDS011;2929;50.810;8.342;2023-11-21T07:41:41;14.73;;;8.03;;
5805;SDS011;2929;50.810;8.342;2023-11-21T07:44:15;13.40;;;7.90;;
5805;SDS011;2929;50.810;8.342;2023-11-21T07:46:43;17.40;;;7.63;;
5805;SDS011;2929;50.810;8.342;2023-11-21T07:49:10;17.03;;;7.67;;
5805;SDS011;2929;50.810;8.342;2023-11-21T07:51:40;14.83;;;8.03;;
5805;SDS011;2929;50.810;8.342;2023-11-21T07:54:07;18.27;;;7.07;;
5805;SDS011;2929;50.810;8.342;2023-11-21T07:56:35;16.63;;;7.60;;
5805;SDS011;2929;50.810;8.342;2023-11-21T07:59:02;17.77;;;7.80;;
5805;SDS011;2929;50.810;8.342;2023-11-21T08:01:31;24.67;;;8.50;;
5805;SDS011;2929;50.810;8.342;2023-11-21T08:03:58;20.53;;;11.97;;
5805;SDS011;2929;50.810;8.342;2023-11-21T08:06:28;32.80;;;14.00;;
5805;SDS011;2929;50.810;8.342;2023-11-21T08:08:56;26.60;;;12.03;;
5805;SDS011;2929;50.810;8.342;2023-11-21T08:11:23;20.43;;;11.90;;
5805;SDS011;2929;50.810;8.342;2023-11-21T08:13:51;21.20;;;11.03;;
5805;SDS011;2929;50.810;8.342;2023-11-21T08:16:22;21.50;;;11.83;;
5805;SDS011;2929;50.810;8.342;2023-11-21T08:18:51;23.23;;;12.87;;
5805;SDS011;2929;50.810;8.342;2023-11-21T08:21:21;16.40;;;10.40;;
5805;SDS011;2929;50.810;8.342;2023-11-21T08:24:00;18.97;;;10.63;;
5805;SDS011;2929;50.810;8.342;2023-11-21T08:26:36;23.77;;;12.70;;
5805;SDS011;2929;50.810;8.342;2023-11-21T08:29:03;29.30;;;11.87;;
5805;SDS011;2929;50.810;8.342;2023-11-21T08:31:32;19.73;;;11.73;;
5805;SDS011;2929;50.810;8.342;2023-11-21T08:34:00;21.60;;;11.40;;
5805;SDS011;2929;50.810;8.342;2023-11-21T08:36:28;22.07;;;11.87;;
5805;SDS011;2929;50.810;8.342;2023-11-21T08:38:56;17.43;;;8.90;;
5805;SDS011;2929;50.810;8.342;2023-11-21T08:41:24;22.20;;;11.63;;
5805;SDS011;2929;50.810;8.342;2023-11-21T08:43:54;19.73;;;10.70;;
5805;SDS011;2929;50.810;8.342;2023-11-21T08:46:23;18.23;;;10.00;;
5805;SDS011;2929;50.810;8.342;2023-11-21T08:48:52;21.37;;;12.40;;
5805;SDS011;2929;50.810;8.342;2023-11-21T08:51:21;19.17;;;11.47;;
5805;SDS011;2929;50.810;8.342;2023-11-21T08:53:48;26.33;;;11.63;;
5805;SDS011;2929;50.810;8.342;2023-11-21T08:56:16;17.80;;;10.40;;
5805;SDS011;2929;50.810;8.342;2023-11-21T08:58:45;20.57;;;10.57;;
5805;SDS011;2929;50.810;8.342;2023-11-21T09:01:13;16.40;;;9.47;;
5805;SDS011;2929;50.810;8.342;2023-11-21T09:03:41;19.63;;;10.87;;
5805;SDS011;2929;50.810;8.342;2023-11-21T09:06:09;20.30;;;10.33;;
5805;SDS011;2929;50.810;8.342;2023-11-21T09:08:37;19.10;;;10.70;;
5805;SDS011;2929;50.810;8.342;2023-11-21T09:11:04;21.60;;;11.63;;
5805;SDS011;2929;50.810;8.342;2023-11-21T09:13:33;15.80;;;9.50;;
5805;SDS011;2929;50.810;8.342;2023-11-21T09:16:02;12.83;;;8.53;;
5805;SDS011;2929;50.810;8.342;2023-11-21T09:18:29;15.07;;;9.33;;
5805;SDS011;2929;50.810;8.342;2023-11-21T09:20:57;12.67;;;7.40;;
5805;SDS011;2929;50.810;8.342;2023-11-21T09:23:24;19.93;;;7.87;;
5805;SDS011;2929;50.810;8.342;2023-11-21T09:25:53;17.63;;;7.00;;
5805;SDS011;2929;50.810;8.342;2023-11-21T09:28:22;15.80;;;9.30;;
5805;SDS011;2929;50.810;8.342;2023-11-21T09:30:49;19.60;;;9.87;;
5805;SDS011;2929;50.810;8.342;2023-11-21T09:33:16;16.90;;;8.20;;
5805;SDS011;2929;50.810;8.342;2023-11-21T09:35:43;17.40;;;8.87;;
5805;SDS011;2929;50.810;8.342;2023-11-21T09:38:10;12.70;;;7.20;;
5805;SDS011;2929;50.810;8.342;2023-11-21T09:40:37;16.80;;;8.20;;
5805;SDS011;2929;50.810;8.342;2023-11-21T09:43:06;17.73;;;5.37;;
5805;SDS011;2929;50.810;8.342;2023-11-21T09:45:43;11.03;;;5.20;;
5805;SDS011;2929;50.810;8.342;2023-11-21T09:48:12;10.63;;;5.90;;
5805;SDS011;2929;50.810;8.342;2023-11-21T09:50:41;16.13;;;6.63;;
5805;SDS011;2929;50.810;8.342;2023-11-21T09:53:11;13.13;;;4.57;;
5805;SDS011;2929;50.810;8.342;2023-11-21T09:55:42;6.30;;;4.00;;
5805;SDS011;2929;50.810;8.342;2023-11-21T09:58:11;9.70;;;4.93;;
5805;SDS011;2929;50.810;8.342;2023-11-21T10:00:40;9.53;;;4.30;;
5805;SDS011;2929;50.810;8.342;2023-11-21T10:03:09;9.10;;;4.83;;
5805;SDS011;2929;50.810;8.342;2023-11-21T10:05:37;9.23;;;4.40;;
5805;SDS011;2929;50.810;8.342;2023-11-21T10:08:08;6.70;;;4.60;;
5805;SDS011;2929;50.810;8.342;2023-11-21T10:10:36;16.30;;;5.23;;
5805;SDS011;2929;50.810;8.342;2023-11-21T10:13:06;10.37;;;5.47;;
5805;SDS011;2929;50.810;8.342;2023-11-21T10:15:37;9.67;;;4.80;;
5805;SDS011;2929;50.810;8.342;2023-11-21T10:18:09;6.00;;;4.57;;
5805;SDS011;2929;50.810;8.342;2023-11-21T10:20:37;6.23;;;4.10;;
5805;SDS011;2929;50.810;8.342;2023-11-21T10:23:04;7.00;;;4.47;;
5805;SDS011;2929;50.810;8.342;2023-11-21T10:25:32;7.43;;;4.77;;
5805;SDS011;2929;50.810;8.342;2023-11-21T10:28:02;9.57;;;4.13;;
5805;SDS011;2929;50.810;8.342;2023-11-21T10:30:32;8.80;;;4.37;;
5805;SDS011;2929;50.810;8.342;2023-11-21T10:33:03;12.53;;;3.57;;
5805;SDS011;2929;50.810;8.342;2023-11-21T10:35:43;4.60;;;3.33;;
5805;SDS011;2929;50.810;8.342;2023-11-21T10:38:16;12.33;;;4.80;;
5805;SDS011;2929;50.810;8.342;2023-11-21T10:40:43;6.30;;;4.10;;
5805;SDS011;2929;50.810;8.342;2023-11-21T10:43:13;5.43;;;3.73;;
5805;SDS011;2929;50.810;8.342;2023-11-21T10:45:41;7.90;;;3.70;;
5805;SDS011;2929;50.810;8.342;2023-11-21T10:48:12;6.33;;;2.97;;
5805;SDS011;2929;50.810;8.342;2023-11-21T10:50:42;9.53;;;4.10;;
5805;SDS011;2929;50.810;8.342;2023-11-21T10:53:09;5.80;;;3.60;;
5805;SDS011;2929;50.810;8.342;2023-11-21T10:55:38;7.43;;;4.13;;
5805;SDS011;2929;50.810;8.342;2023-11-21T10:58:05;10.30;;;4.60;;
5805;SDS011;2929;50.810;8.342;2023-11-21T11:00:35;9.37;;;4.70;;
5805;SDS011;2929;50.810;8.342;2023-11-21T11:03:05;7.50;;;4.90;;
5805;SDS011;2929;50.810;8.342;2023-11-21T11:05:40;8.13;;;4.30;;
5805;SDS011;2929;50.810;8.342;2023-11-21T11:08:08;8.83;;;5.10;;
5805;SDS011;2929;50.810;8.342;2023-11-21T11:10:35;8.80;;;5.10;;
5805;SDS011;2929;50.810;8.342;2023-11-21T11:13:06;14.40;;;5.23;;
5805;SDS011;2929;50.810;8.342;2023-11-21T11:15:34;14.67;;;5.50;;
5805;SDS011;2929;50.810;8.342;2023-11-21T11:18:01;7.50;;;4.63;;
5805;SDS011;2929;50.810;8.342;2023-11-21T11:20:32;10.80;;;5.30;;
5805;SDS011;2929;50.810;8.342;2023-11-21T11:23:08;13.00;;;5.93;;
5805;SDS011;2929;50.810;8.342;2023-11-21T11:25:49;14.30;;;6.00;;
5805;SDS011;2929;50.810;8.342;2023-11-21T11:28:20;12.50;;;5.20;;
5805;SDS011;2929;50.810;8.342;2023-11-21T11:30:53;6.97;;;4.93;;
5805;SDS011;2929;50.810;8.342;2023-11-21T11:33:30;8.87;;;5.30;;
5805;SDS011;2929;50.810;8.342;2023-11-21T11:36:46;6.50;;;4.67;;
5805;SDS011;2929;50.810;8.342;2023-11-21T11:42:01;14.73;;;6.90;;
5805;SDS011;2929;50.810;8.342;2023-11-21T11:47:35;10.53;;;5.60;;
5805;SDS011;2929;50.810;8.342;2023-11-21T11:50:05;10.30;;;5.33;;
5805;SDS011;2929;50.810;8.342;2023-11-21T11:52:39;15.47;;;8.00;;
5805;SDS011;2929;50.810;8.342;2023-11-21T11:55:08;13.27;;;7.00;;
5805;SDS011;2929;50.810;8.342;2023-11-21T11:57:41;12.20;;;5.50;;
5805;SDS011;2929;50.810;8.342;2023-11-21T12:00:12;10.60;;;5.63;;
5805;SDS011;2929;50.810;8.342;2023-11-21T12:02:47;8.10;;;3.47;;
5805;SDS011;2929;50.810;8.342;2023-11-21T12:05:15;10.63;;;4.10;;
5805;SDS011;2929;50.810;8.342;2023-11-21T12:07:44;6.77;;;4.10;;
5805;SDS011;2929;50.810;8.342;2023-11-21T12:10:15;5.73;;;3.60;;
5805;SDS011;2929;50.810;8.342;2023-11-21T12:12:45;11.33;;;3.93;;
5805;SDS011;2929;50.810;8.342;2023-11-21T12:15:12;7.17;;;3.97;;
5805;SDS011;2929;50.810;8.342;2023-11-21T12:17:40;5.30;;;3.40;;
5805;SDS011;2929;50.810;8.342;2023-11-21T12:20:09;7.13;;;3.60;;
5805;SDS011;2929;50.810;8.342;2023-11-21T12:22:44;7.83;;;4.60;;
5805;SDS011;2929;50.810;8.342;2023-11-21T12:25:14;6.27;;;3.90;;
5805;SDS011;2929;50.810;8.342;2023-11-21T12:27:45;5.60;;;4.20;;
5805;SDS011;2929;50.810;8.342;2023-11-21T12:30:14;8.33;;;4.70;;
5805;SDS011;2929;50.810;8.342;2023-11-21T12:32:42;9.37;;;3.60;;
5805;SDS011;2929;50.810;8.342;2023-11-21T12:35:11;5.20;;;3.97;;
5805;SDS011;2929;50.810;8.342;2023-11-21T12:37:39;10.70;;;4.73;;
5805;SDS011;2929;50.810;8.342;2023-11-21T12:40:08;5.90;;;3.83;;
5805;SDS011;2929;50.810;8.342;2023-11-21T12:42:37;6.60;;;3.63;;
5805;SDS011;2929;50.810;8.342;2023-11-21T12:45:10;6.23;;;3.87;;
5805;SDS011;2929;50.810;8.342;2023-11-21T12:47:45;6.03;;;4.20;;
5805;SDS011;2929;50.810;8.342;2023-11-21T12:50:13;13.90;;;5.13;;
5805;SDS011;2929;50.810;8.342;2023-11-21T12:52:44;9.93;;;3.87;;
5805;SDS011;2929;50.810;8.342;2023-11-21T12:55:15;8.37;;;4.30;;
5805;SDS011;2929;50.810;8.342;2023-11-21T12:57:43;6.20;;;3.70;;
5805;SDS011;2929;50.810;8.342;2023-11-21T13:00:13;9.20;;;4.70;;
5805;SDS011;2929;50.810;8.342;2023-11-21T13:02:52;7.13;;;3.80;;
5805;SDS011;2929;50.810;8.342;2023-11-21T13:05:26;7.10;;;4.20;;
5805;SDS011;2929;50.810;8.342;2023-11-21T13:07:53;8.10;;;4.33;;
5805;SDS011;2929;50.810;8.342;2023-11-21T13:10:23;10.13;;;4.40;;
5805;SDS011;2929;50.810;8.342;2023-11-21T13:12:54;8.83;;;5.43;;
5805;SDS011;2929;50.810;8.342;2023-11-21T13:15:25;22.33;;;9.40;;
5805;SDS011;2929;50.810;8.342;2023-11-21T13:17:53;7.47;;;4.90;;
5805;SDS011;2929;50.810;8.342;2023-11-21T13:20:21;7.00;;;4.40;;
5805;SDS011;2929;50.810;8.342;2023-11-21T13:22:50;8.97;;;4.63;;
5805;SDS011;2929;50.810;8.342;2023-11-21T13:25:19;11.50;;;3.97;;
5805;SDS011;2929;50.810;8.342;2023-11-21T13:27:46;9.13;;;4.83;;
5805;SDS011;2929;50.810;8.342;2023-11-21T13:30:15;7.10;;;3.23;;
5805;SDS011;2929;50.810;8.342;2023-11-21T13:35:35;9.20;;;4.27;;
5805;SDS011;2929;50.810;8.342;2023-11-21T13:38:07;13.13;;;5.07;;
5805;SDS011;2929;50.810;8.342;2023-11-21T13:40:35;9.03;;;4.43;;
5805;SDS011;2929;50.810;8.342;2023-11-21T13:43:08;8.07;;;4.40;;
5805;SDS011;2929;50.810;8.342;2023-11-21T13:45:36;7.30;;;3.90;;
5805;SDS011;2929;50.810;8.342;2023-11-21T13:48:04;6.57;;;4.10;;
5805;SDS011;2929;50.810;8.342;2023-11-21T13:50:36;12.50;;;4.13;;
5805;SDS011;2929;50.810;8.342;2023-11-21T13:53:04;12.23;;;4.40;;
5805;SDS011;2929;50.810;8.342;2023-11-21T13:55:41;14.23;;;4.23;;
5805;SDS011;2929;50.810;8.342;2023-11-21T13:58:09;7.73;;;4.30;;
5805;SDS011;2929;50.810;8.342;2023-11-21T14:00:41;8.53;;;4.50;;
5805;SDS011;2929;50.810;8.342;2023-11-21T14:03:10;12.13;;;4.80;;
5805;SDS011;2929;50.810;8.342;2023-11-21T14:09:12;11.13;;;5.77;;
5805;SDS011;2929;50.810;8.342;2023-11-21T14:11:48;8.17;;;4.63;;
5805;SDS011;2929;50.810;8.342;2023-11-21T14:14:16;12.57;;;5.97;;
5805;SDS011;2929;50.810;8.342;2023-11-21T14:16:44;22.47;;;8.57;;
5805;SDS011;2929;50.810;8.342;2023-11-21T14:19:12;17.73;;;7.20;;
5805;SDS011;2929;50.810;8.342;2023-11-21T14:21:42;21.23;;;5.63;;
5805;SDS011;2929;50.810;8.342;2023-11-21T14:24:12;14.87;;;5.83;;
5805;SDS011;2929;50.810;8.342;2023-11-21T14:26:40;12.03;;;5.40;;
5805;SDS011;2929;50.810;8.342;2023-11-21T14:29:09;18.43;;;8.70;;
5805;SDS011;2929;50.810;8.342;2023-11-21T14:31:39;22.67;;;7.17;;
5805;SDS011;2929;50.810;8.342;2023-11-21T14:34:07;11.27;;;6.43;;
5805;SDS011;2929;50.810;8.342;2023-11-21T14:36:36;11.27;;;6.37;;
5805;SDS011;2929;50.810;8.342;2023-11-21T14:39:04;9.80;;;5.67;;
5805;SDS011;2929;50.810;8.342;2023-11-21T14:41:35;11.30;;;6.80;;
5805;SDS011;2929;50.810;8.342;2023-11-21T14:44:04;5.27;;;4.20;;
5805;SDS011;2929;50.810;8.342;2023-11-21T14:46:37;5.23;;;3.53;;
5805;SDS011;2929;50.810;8.342;2023-11-21T14:49:05;4.53;;;3.60;;
5805;SDS011;2929;50.810;8.342;2023-11-21T14:51:44;5.40;;;3.83;;
5805;SDS011;2929;50.810;8.342;2023-11-21T14:54:25;7.07;;;4.40;;
5805;SDS011;2929;50.810;8.342;2023-11-21T14:57:07;4.83;;;3.40;;
5805;SDS011;2929;50.810;8.342;2023-11-21T14:59:42;3.20;;;2.90;;
5805;SDS011;2929;50.810;8.342;2023-11-21T15:02:08;5.70;;;3.40;;
5805;SDS011;2929;50.810;8.342;2023-11-21T15:04:47;4.57;;;3.33;;
5805;SDS011;2929;50.810;8.342;2023-11-21T15:07:16;7.17;;;4.00;;
5805;SDS011;2929;50.810;8.342;2023-11-21T15:09:43;7.27;;;4.20;;
5805;SDS011;2929;50.810;8.342;2023-11-21T15:15:21;10.03;;;4.13;;
5805;SDS011;2929;50.810;8.342;2023-11-21T15:17:49;9.37;;;6.07;;
5805;SDS011;2929;50.810;8.342;2023-11-21T15:24:02;10.90;;;6.80;;
5805;SDS011;2929;50.810;8.342;2023-11-21T15:26:46;30.17;;;13.70;;
5805;SDS011;2929;50.810;8.342;2023-11-21T15:29:13;13.30;;;6.67;;
5805;SDS011;2929;50.810;8.342;2023-11-21T15:35:11;7.77;;;5.20;;
5805;SDS011;2929;50.810;8.342;2023-11-21T15:37:40;7.57;;;5.60;;